Observations for STANSTED AIRPORT, United Kingdom (EGSS)

EGSS 242020Z AUTO 22015KT 9999 -RA BKN016 12/11 Q1007   
EGSS 241950Z AUTO 22015KT 9999 BKN015 13/11 Q1007   
EGSS 241920Z 22016KT 9999 SCT012 OVC018 13/11 Q1008 
EGSS 241850Z 22014KT 9999 OVC016 13/11 Q1008
EGSS 241820Z AUTO 22014KT 9999 BKN009 OVC013 13/11 Q1008
EGSS 241750Z AUTO 21015KT 9999 OVC008 13/12 Q1009   
EGSS 241720Z 22016KT 6000 -RA FEW013 BKN016 13/12 Q1009 RERA REDZ   
EGSS 241650Z AUTO 22019KT 9999 BKN014 OVC019 14/11 Q1009
EGSS 241620Z AUTO 21018G28KT 9999 BKN017 OVC022 14/11 Q1010 
EGSS 241550Z AUTO 22018KT 9999 OVC026 15/09 Q1010   
EGSS 241520Z AUTO 21018KT 9999 BKN032 OVC040 16/07 Q1010
EGSS 241450Z AUTO 21014KT 9999 OVC039 16/08 Q1011   
EGSS 241420Z AUTO 19014KT 9999 BKN038 OVC048 16/09 Q1011
EGSS 241350Z AUTO 18010KT 9999 BKN049 16/09 Q1012   
EGSS 241320Z AUTO 20010KT 9999 NCD 15/09 Q1013  
EGSS 241250Z AUTO 21010KT 9999 FEW025 15/09 Q1014   
EGSS 241220Z AUTO 20009KT 9999 NCD 14/09 Q1014  
EGSS 241150Z AUTO 21009KT 9999 NCD 13/09 Q1014  
EGSS 241120Z AUTO 23010KT 9999 NCD 13/09 Q1015  
EGSS 241050Z AUTO 21008KT 9999 NCD 13/09 Q1015  
EGSS 241020Z AUTO 24007KT 220V290 9999 -RA NCD 12/08 Q1015  
EGSS 240950Z AUTO 26008KT 9999 NCD 12/07 Q1016  
EGSS 240920Z AUTO 26009KT 9999 NCD 12/07 Q1016  
EGSS 240850Z AUTO 26009KT 9999 NCD 12/07 Q1016  
EGSS 240820Z AUTO 26008KT 9999 NCD 12/08 Q1015  
EGSS 240750Z AUTO 25008KT 9999 NCD 12/08 Q1015  
EGSS 240720Z AUTO 25008KT 9999 NCD 12/09 Q1015  
EGSS 240650Z AUTO 25008KT 9999 NCD 12/09 Q1015  
EGSS 240620Z AUTO 25008KT 9999 NCD 11/09 Q1015  
EGSS 240550Z AUTO 24008KT 9999 NCD 11/08 Q1014  
EGSS 240520Z AUTO 24011KT 9999 NCD 11/08 Q1014  
EGSS 240450Z AUTO 25009KT 9999 FEW016 11/08 Q1014   
EGSS 240420Z AUTO 25010KT 9999 BKN016 11/08 Q1014   
EGSS 240350Z AUTO 25010KT 9999 BKN018 11/08 Q1014   
EGSS 240320Z AUTO 25008KT 9999 SCT017 BKN025 11/09 Q1014
EGSS 240250Z AUTO 25009KT 9999 SCT016 BKN029 11/09 Q1014
EGSS 240220Z AUTO 24009KT 9999 FEW027 11/08 Q1014   
EGSS 240150Z AUTO 25010KT 9999 SCT021 BKN025 11/08 Q1014
EGSS 240120Z AUTO 25013KT 9999 BKN019 11/08 Q1014   
EGSS 240050Z AUTO 25012KT 9999 BKN017 OVC023 11/08 Q1014
EGSS 240020Z AUTO 24013KT 9999 OVC017 12/08 Q1014   
EGSS 232350Z AUTO 24014KT 9999 OVC018 12/08 Q1014   
EGSS 232320Z AUTO 23013KT 9999 BKN020 12/08 Q1014   
EGSS 232250Z AUTO 23012KT 9999 NCD 11/07 Q1014  
EGSS 232220Z AUTO 24013KT 9999 SCT025 SCT035 11/08 Q1014
EGSS 232150Z AUTO 23012KT 9999 NCD 12/08 Q1014  
EGSS 232120Z AUTO 23012KT 9999 BKN045 12/08 Q1014   
EGSS 232050Z AUTO 24012KT 9999 NCD 12/08 Q1015  
EGSS 232020Z AUTO 23010KT 9999 NCD 12/07 Q1015  
EGSS 231950Z AUTO 23011KT 9999 NCD 13/07 Q1015